TimeCST,TemperatureF,Dew PointF,Humidity,Sea Level PressureIn,VisibilityMPH,Wind Direction,Wind SpeedMPH,Gust SpeedMPH,PrecipitationIn,Events,Conditions,WindDirDegrees,DateUTC
12:15 AM,39.2,37.4,93,30.06,10.0,NE,12.7,-,N/A,,Overcast,40,2013-01-10 06:15:00
12:35 AM,39.2,37.4,93,30.05,10.0,NNE,12.7,-,N/A,,Overcast,30,2013-01-10 06:35:00
12:55 AM,39.2,37.4,93,30.03,10.0,NNE,10.4,-,N/A,,Overcast,20,2013-01-10 06:55:00
2:15 AM,39.2,37.4,93,29.98,7.0,NNE,15.0,19.6,N/A,,Overcast,20,2013-01-10 08:15:00
2:35 AM,39.2,37.4,93,29.98,5.0,NNE,12.7,19.6,N/A,,Overcast,30,2013-01-10 08:35:00
2:55 AM,39.2,37.4,93,29.97,5.0,NNE,15.0,-,N/A,,Overcast,30,2013-01-10 08:55:00
3:15 AM,39.2,37.4,93,29.98,4.0,NE,17.3,-,N/A,,Overcast,40,2013-01-10 09:15:00
3:35 AM,39.2,37.4,93,29.98,2.5,NE,12.7,-,N/A,,Overcast,40,2013-01-10 09:35:00
3:55 AM,39.2,37.4,93,29.98,2.5,NNE,9.2,-,N/A,,Overcast,30,2013-01-10 09:55:00
4:15 AM,39.2,37.4,93,29.97,3.0,NNE,10.4,-,N/A,Rain,Light Rain,30,2013-01-10 10:15:00
4:35 AM,39.2,37.4,93,29.96,7.0,NE,5.8,-,N/A,Rain,Rain,40,2013-01-10 10:35:00
4:55 AM,39.2,37.4,93,29.95,7.0,North,4.6,-,N/A,Rain,Light Rain,10,2013-01-10 10:55:00
5:15 AM,39.2,37.4,93,29.93,7.0,NNW,9.2,-,N/A,,Light Drizzle,340,2013-01-10 11:15:00
5:35 AM,39.2,37.4,93,29.92,5.0,NNW,10.4,-,N/A,,Overcast,340,2013-01-10 11:35:00
5:55 AM,37.4,37.4,100,29.89,5.0,NNW,12.7,-,N/A,,Overcast,340,2013-01-10 11:55:00
6:15 AM,37.4,35.6,93,29.90,7.0,NNW,12.7,-,N/A,,Overcast,340,2013-01-10 12:15:00
6:35 AM,37.4,35.6,93,29.91,5.0,NNW,12.7,-,N/A,,Overcast,340,2013-01-10 12:35:00
6:55 AM,35.6,35.6,100,29.92,5.0,North,11.5,-,N/A,,Overcast,350,2013-01-10 12:55:00
7:35 AM,35.6,35.6,100,29.93,3.0,NNW,12.7,-,N/A,,Overcast,330,2013-01-10 13:35:00
7:55 AM,35.6,35.6,100,29.95,2.5,NNW,10.4,-,N/A,,Overcast,340,2013-01-10 13:55:00
8:15 AM,35.6,35.6,100,29.95,3.0,North,8.1,-,N/A,,Overcast,360,2013-01-10 14:15:00
8:35 AM,35.6,35.6,100,29.94,3.0,North,9.2,-,N/A,,Overcast,360,2013-01-10 14:35:00
8:55 AM,35.6,35.6,100,29.95,4.0,NNW,6.9,-,N/A,,Overcast,340,2013-01-10 14:55:00
9:15 AM,37.4,35.6,93,29.96,5.0,NNW,6.9,-,N/A,,Overcast,330,2013-01-10 15:15:00
9:35 AM,37.4,35.6,93,29.96,5.0,NW,6.9,-,N/A,,Overcast,310,2013-01-10 15:35:00
9:55 AM,37.4,35.6,93,29.97,1.5,NW,5.8,-,N/A,,Overcast,310,2013-01-10 15:55:00
10:15 AM,39.2,37.4,93,29.96,1.5,NW,6.9,-,N/A,,Overcast,310,2013-01-10 16:15:00
10:35 AM,39.2,37.4,93,29.96,1.5,NW,8.1,-,N/A,,Overcast,320,2013-01-10 16:35:00
10:55 AM,39.2,37.4,93,29.95,5.0,NW,8.1,-,N/A,,Overcast,320,2013-01-10 16:55:00
11:15 AM,39.2,37.4,93,29.94,10.0,NW,6.9,-,N/A,,Overcast,310,2013-01-10 17:15:00
11:35 AM,41.0,37.4,87,29.93,10.0,WNW,9.2,-,N/A,,Overcast,300,2013-01-10 17:35:00
11:55 AM,41.0,39.2,93,29.91,10.0,WNW,9.2,-,N/A,,Overcast,290,2013-01-10 17:55:00
12:15 PM,42.8,39.2,87,29.91,10.0,West,15.0,-,N/A,,Overcast,270,2013-01-10 18:15:00
12:35 PM,41.0,37.4,87,29.90,10.0,West,13.8,-,N/A,,Overcast,260,2013-01-10 18:35:00
12:55 PM,41.0,37.4,87,29.88,10.0,West,13.8,-,N/A,,Overcast,270,2013-01-10 18:55:00
1:15 PM,42.8,37.4,81,29.86,10.0,West,11.5,-,N/A,,Overcast,280,2013-01-10 19:15:00
1:35 PM,42.8,37.4,81,29.86,10.0,WNW,11.5,-,N/A,,Mostly Cloudy,290,2013-01-10 19:35:00
1:55 PM,44.6,39.2,81,29.85,10.0,West,11.5,-,N/A,,Mostly Cloudy,270,2013-01-10 19:55:00
2:15 PM,46.4,41.0,81,29.84,10.0,West,10.4,-,N/A,,Mostly Cloudy,260,2013-01-10 20:15:00
2:35 PM,46.4,41.0,81,29.84,10.0,West,9.2,-,N/A,,Mostly Cloudy,260,2013-01-10 20:35:00
2:55 PM,50.0,42.8,76,29.85,7.0,WSW,15.0,-,N/A,,Scattered Clouds,250,2013-01-10 20:55:00
3:15 PM,50.0,42.8,76,29.86,10.0,West,15.0,-,N/A,,Scattered Clouds,260,2013-01-10 21:15:00
3:35 PM,50.0,42.8,76,29.86,10.0,WSW,12.7,-,N/A,,Overcast,250,2013-01-10 21:35:00
3:55 PM,50.0,41.0,71,29.85,10.0,West,12.7,-,N/A,,Mostly Cloudy,260,2013-01-10 21:55:00
4:15 PM,50.0,41.0,71,29.84,10.0,WSW,12.7,-,N/A,,Clear,250,2013-01-10 22:15:00
4:35 PM,50.0,41.0,71,29.82,10.0,WSW,12.7,-,N/A,,Clear,240,2013-01-10 22:35:00
4:55 PM,50.0,41.0,71,29.83,10.0,WSW,11.5,18.4,N/A,,Clear,250,2013-01-10 22:55:00
5:15 PM,50.0,42.8,76,29.82,10.0,SW,8.1,-,N/A,,Clear,230,2013-01-10 23:15:00
5:35 PM,50.0,42.8,76,29.81,10.0,SSW,4.6,-,N/A,,Clear,210,2013-01-10 23:35:00
5:55 PM,46.4,42.8,87,29.81,10.0,SSW,5.8,-,N/A,,Clear,200,2013-01-10 23:55:00
6:15 PM,44.6,41.0,87,29.80,10.0,South,6.9,-,N/A,,Clear,180,2013-01-11 00:15:00
6:35 PM,42.8,41.0,93,29.80,10.0,South,6.9,-,N/A,,Clear,190,2013-01-11 00:35:00
6:55 PM,44.6,41.0,87,29.81,10.0,SSW,9.2,-,N/A,,Clear,210,2013-01-11 00:55:00
7:15 PM,42.8,41.0,93,29.83,10.0,SSW,10.4,-,N/A,,Clear,210,2013-01-11 01:15:00
7:35 PM,42.8,39.2,87,29.82,10.0,SSW,9.2,-,N/A,,Clear,210,2013-01-11 01:35:00
7:55 PM,42.8,39.2,87,29.81,10.0,SW,9.2,-,N/A,,Clear,230,2013-01-11 01:55:00
8:15 PM,44.6,39.2,81,29.80,10.0,SW,10.4,-,N/A,,Clear,220,2013-01-11 02:15:00
8:35 PM,42.8,39.2,87,29.81,10.0,SW,13.8,-,N/A,,Clear,220,2013-01-11 02:35:00
8:55 PM,42.8,37.4,81,29.80,10.0,SW,11.5,-,N/A,,Clear,220,2013-01-11 02:55:00
9:15 PM,42.8,37.4,81,29.81,10.0,SW,11.5,-,N/A,,Clear,230,2013-01-11 03:15:00
9:35 PM,42.8,37.4,81,29.80,10.0,SW,11.5,-,N/A,,Clear,220,2013-01-11 03:35:00
9:55 PM,42.8,35.6,76,29.80,10.0,SW,10.4,-,N/A,,Clear,230,2013-01-11 03:55:00
10:15 PM,42.8,35.6,76,29.80,10.0,SW,10.4,-,N/A,,Clear,220,2013-01-11 04:15:00
10:35 PM,42.8,35.6,76,29.82,10.0,SW,10.4,-,N/A,,Clear,230,2013-01-11 04:35:00
10:55 PM,42.8,35.6,76,29.80,10.0,SW,12.7,-,N/A,,Clear,220,2013-01-11 04:55:00
11:15 PM,42.8,35.6,76,29.79,10.0,SW,12.7,18.4,N/A,,Clear,230,2013-01-11 05:15:00
11:35 PM,41.0,35.6,81,29.79,10.0,SW,12.7,-,N/A,,Clear,220,2013-01-11 05:35:00
11:55 PM,41.0,35.6,81,29.79,10.0,SW,15.0,-,0.01,,Clear,220,2013-01-11 05:55:00